Time;durP1;ratioP1;P1;durP2;ratioP2;P2;SDS_P1;SDS_P2;PMS_P1;PMS_P2;Temp;Humidity;BMP_temperature;BMP_pressure;BME280_temperature;BME280_humidity;BME280_pressure;Samples;Min_cycle;Max_cycle;Signal;HPM_P1;HPM_P2
2021/10/26 00:00:23;;;;;;;27.42;20.20;;;;;;;3.51;100.00;96287.59;1031878;28;20081;-71
2021/10/26 00:00:54;;;;;;;33.63;20.95;;;;;;;3.44;100.00;96282.44;1027676;28;20026;-71
2021/10/26 00:01:25;;;;;;;27.98;18.85;;;;;;;3.47;100.00;96282.03;1032062;28;20030;-71
2021/10/26 00:01:55;;;;;;;26.42;19.63;;;;;;;3.50;100.00;96286.81;1027549;28;20440;-71
2021/10/26 00:02:26;;;;;;;28.80;19.83;;;;;;;3.43;100.00;96275.66;1031896;28;20037;-71
2021/10/26 00:02:56;;;;;;;24.70;19.08;;;;;;;3.51;100.00;96296.19;1031679;28;20511;-71
2021/10/26 00:03:26;;;;;;;29.30;19.58;;;;;;;3.45;100.00;96281.44;1023985;29;20397;-71
2021/10/26 00:03:57;;;;;;;29.33;20.42;;;;;;;3.49;100.00;96295.59;1027771;28;20507;-71
2021/10/26 00:04:27;;;;;;;27.60;19.55;;;;;;;3.49;100.00;96300.00;1027802;28;20027;-70
2021/10/26 00:04:58;;;;;;;28.50;18.45;;;;;;;3.51;100.00;96295.38;1031750;28;20026;-70
2021/10/26 00:05:28;;;;;;;26.25;18.08;;;;;;;3.49;100.00;96295.59;1036200;28;20038;-71
2021/10/26 00:05:59;;;;;;;26.23;18.85;;;;;;;3.48;100.00;96291.41;1031519;28;20030;-70
2021/10/26 00:06:29;;;;;;;25.92;18.67;;;;;;;3.45;100.00;96297.00;1027956;28;20073;-71
2021/10/26 00:06:59;;;;;;;29.30;18.35;;;;;;;3.46;100.00;96293.41;1023797;29;20039;-69
2021/10/26 00:07:30;;;;;;;26.55;18.45;;;;;;;3.47;100.00;96302.78;1023927;28;20035;-70
2021/10/26 00:08:00;;;;;;;24.33;17.77;;;;;;;3.45;100.00;96299.59;1031221;28;20030;-72
2021/10/26 00:08:31;;;;;;;22.08;17.17;;;;;;;3.40;100.00;96286.44;1023839;28;20139;-71
2021/10/26 00:09:02;;;;;;;26.17;17.85;;;;;;;3.48;100.00;96296.59;1031817;28;20037;-71
2021/10/26 00:09:32;;;;;;;26.50;18.40;;;;;;;3.48;100.00;96304.38;1031972;28;20109;-71
2021/10/26 00:10:07;;;;;;;23.95;17.90;;;;;;;3.49;100.00;96300.00;1027977;28;20034;-71
2021/10/26 00:10:37;;;;;;;26.40;18.10;;;;;;;3.49;100.00;96294.81;1032514;28;20115;-70
2021/10/26 00:11:08;;;;;;;25.88;18.30;;;;;;;3.51;100.00;96296.19;1035859;28;20698;-71
2021/10/26 00:11:39;;;;;;;28.17;18.63;;;;;;;3.38;100.00;96274.66;1032295;28;20224;-71
2021/10/26 00:12:10;;;;;;;28.02;18.38;;;;;;;3.54;100.00;96298.38;1036391;28;20034;-70
2021/10/26 00:12:40;;;;;;;26.05;18.05;;;;;;;3.52;100.00;96295.19;1044106;28;20263;-71
2021/10/26 00:13:11;;;;;;;22.33;17.23;;;;;;;3.49;100.00;96295.59;1039933;28;20032;-71
2021/10/26 00:13:41;;;;;;;25.55;18.25;;;;;;;3.47;100.00;96295.00;1040134;28;20473;-71
2021/10/26 00:14:11;;;;;;;22.63;16.67;;;;;;;3.47;100.00;96292.41;1039696;28;20025;-70
2021/10/26 00:14:42;;;;;;;22.92;17.23;;;;;;;3.55;100.00;96296.56;1036101;28;20033;-70
2021/10/26 00:15:12;;;;;;;23.17;17.52;;;;;;;3.52;100.00;96290.00;1039916;28;20781;-70
2021/10/26 00:15:43;;;;;;;24.77;16.80;;;;;;;3.53;100.00;96296.00;1039953;28;20422;-71
2021/10/26 00:16:13;;;;;;;21.80;16.50;;;;;;;3.52;100.00;96292.59;1036014;28;20030;-71
2021/10/26 00:16:44;;;;;;;21.88;16.27;;;;;;;3.50;100.00;96286.81;1040101;28;20029;-72
2021/10/26 00:17:15;;;;;;;24.95;16.13;;;;;;;3.49;100.00;96277.44;1039811;28;20363;-71
2021/10/26 00:17:45;;;;;;;26.67;17.92;;;;;;;3.52;100.00;96278.81;1035580;28;20053;-71
2021/10/26 00:18:16;;;;;;;21.02;15.40;;;;;;;3.54;100.00;96272.44;1031539;28;20026;-71
2021/10/26 00:18:46;;;;;;;20.75;16.58;;;;;;;3.62;100.00;96284.41;1028050;28;20084;-68
2021/10/26 00:19:17;;;;;;;23.67;16.88;;;;;;;3.66;100.00;96284.78;1027710;28;20151;-72
2021/10/26 00:19:47;;;;;;;21.95;16.58;;;;;;;3.62;100.00;96284.41;1027781;28;20031;-71
2021/10/26 00:20:18;;;;;;;24.95;16.67;;;;;;;3.61;100.00;96282.00;1027914;28;20035;-71
2021/10/26 00:20:48;;;;;;;21.13;16.25;;;;;;;3.66;100.00;96279.59;1027753;28;20098;-70
2021/10/26 00:21:19;;;;;;;20.92;15.23;;;;;;;3.63;100.00;96274.81;1023608;28;20023;-70
2021/10/26 00:21:49;;;;;;;21.80;16.65;;;;;;;3.67;100.00;96284.56;1024196;28;20042;-71
2021/10/26 00:22:20;;;;;;;22.35;15.57;;;;;;;3.68;100.00;96282.75;1027990;28;20501;-71
2021/10/26 00:22:50;;;;;;;19.10;14.73;;;;;;;3.70;100.00;96280.78;1032005;28;20041;-70
2021/10/26 00:23:21;;;;;;;22.48;15.25;;;;;;;3.64;100.00;96277.19;1032050;28;20030;-71
2021/10/26 00:23:51;;;;;;;20.95;15.63;;;;;;;3.68;100.00;96273.16;1039840;28;20318;-71
2021/10/26 00:24:22;;;;;;;21.10;15.13;;;;;;;3.73;100.00;96280.38;1036102;28;20026;-71
2021/10/26 00:24:52;;;;;;;20.27;15.00;;;;;;;3.73;100.00;96281.16;1035778;28;20030;-71
2021/10/26 00:25:23;;;;;;;20.15;14.93;;;;;;;3.71;100.00;96282.34;1031837;28;20466;-70
2021/10/26 00:25:53;;;;;;;21.17;15.27;;;;;;;3.74;100.00;96287.94;1031947;28;20022;-71
2021/10/26 00:26:24;;;;;;;19.85;15.13;;;;;;;3.75;100.00;96283.53;1027778;28;20125;-71
2021/10/26 00:26:54;;;;;;;20.33;15.27;;;;;;;3.75;100.00;96283.53;1027625;28;20027;-70
2021/10/26 00:27:25;;;;;;;23.25;15.38;;;;;;;3.73;100.00;96280.38;1036005;28;20029;-71
2021/10/26 00:27:56;;;;;;;20.33;14.80;;;;;;;3.72;100.00;96281.34;1039182;28;20024;-71
2021/10/26 00:28:26;;;;;;;21.77;15.43;;;;;;;3.70;100.00;96281.56;1035911;28;20062;-71
2021/10/26 00:28:56;;;;;;;21.95;14.82;;;;;;;3.69;100.00;96279.97;1039656;28;20025;-71
2021/10/26 00:29:27;;;;;;;22.50;14.73;;;;;;;3.72;100.00;96283.94;1035757;28;20072;-71
2021/10/26 00:29:57;;;;;;;19.92;15.07;;;;;;;3.70;100.00;96280.78;1031871;28;20056;-70
2021/10/26 00:30:28;;;;;;;20.90;14.93;;;;;;;3.66;100.00;96279.59;1027732;28;20029;-70
2021/10/26 00:30:58;;;;;;;21.92;15.65;;;;;;;3.68;100.00;96282.75;1023642;28;20023;-71
2021/10/26 00:31:29;;;;;;;22.17;15.15;;;;;;;3.60;100.00;96273.41;1027938;28;20034;-70
2021/10/26 00:32:00;;;;;;;20.80;15.05;;;;;;;3.64;100.00;96282.38;1027797;28;20416;-71
2021/10/26 00:32:30;;;;;;;18.95;14.30;;;;;;;3.68;100.00;96283.56;1027846;28;20282;-70
2021/10/26 00:33:01;;;;;;;18.70;13.40;;;;;;;3.70;100.00;96283.38;1023607;28;20627;-70
2021/10/26 00:33:32;;;;;;;21.45;14.45;;;;;;;3.69;100.00;96281.75;1027746;28;20023;-71
2021/10/26 00:34:03;;;;;;;22.25;14.80;;;;;;;3.65;100.00;96280.56;1032134;28;21240;-72
2021/10/26 00:34:33;;;;;;;17.48;13.50;;;;;;;3.63;100.00;96290.38;1027699;28;20424;-71
2021/10/26 00:35:04;;;;;;;18.52;14.35;;;;;;;3.58;100.00;96287.59;1027895;28;20026;-71
2021/10/26 00:35:35;;;;;;;21.63;14.13;;;;;;;3.54;100.00;96279.41;1028160;28;20034;-71
2021/10/26 00:36:06;;;;;;;20.67;14.02;;;;;;;3.61;100.00;96290.56;1027982;28;20576;-70
2021/10/26 00:36:36;;;;;;;17.65;13.02;;;;;;;3.66;100.00;96295.16;1031928;28;20030;-71
2021/10/26 00:37:06;;;;;;;18.00;14.48;;;;;;;3.69;100.00;96289.53;1027821;28;20027;-69
2021/10/26 00:37:37;;;;;;;18.50;14.07;;;;;;;3.65;100.00;96280.56;1027704;28;20018;-71
2021/10/26 00:38:08;;;;;;;21.08;14.85;;;;;;;3.64;100.00;96286.78;1023406;28;20031;-71
2021/10/26 00:38:38;;;;;;;18.67;13.85;;;;;;;3.65;100.00;96283.16;1027844;28;20826;-71
2021/10/26 00:39:09;;;;;;;17.00;13.82;;;;;;;3.66;100.00;96282.19;1023771;28;20374;-71
2021/10/26 00:39:40;;;;;;;18.23;14.25;;;;;;;3.65;100.00;96278.78;1028072;28;20670;-72
2021/10/26 00:40:11;;;;;;;20.42;14.07;;;;;;;3.69;100.00;96284.34;1027769;28;20512;-70
2021/10/26 00:40:44;;;;;;;17.55;13.07;;;;;;;3.71;100.00;96283.16;1031322;28;20915;-69
2021/10/26 00:41:15;;;;;;;17.05;13.15;;;;;;;3.75;100.00;96279.13;1030776;28;20315;-71
2021/10/26 00:41:45;;;;;;;19.48;13.68;;;;;;;3.68;100.00;96277.56;1028475;28;20278;-70
2021/10/26 00:42:16;;;;;;;16.33;12.93;;;;;;;3.72;100.00;96282.16;1026554;28;20031;-70
2021/10/26 00:42:46;;;;;;;20.40;13.52;;;;;;;3.74;100.00;96287.13;1023956;28;20023;-71
2021/10/26 00:43:17;;;;;;;20.80;15.02;;;;;;;3.74;100.00;96281.94;1027855;28;20041;-72
2021/10/26 00:43:48;;;;;;;19.20;13.70;;;;;;;3.74;100.00;96287.13;1028207;28;20050;-70
2021/10/26 00:44:19;;;;;;;17.48;13.18;;;;;;;3.75;100.00;96280.94;1028113;28;20401;-71
2021/10/26 00:44:49;;;;;;;19.45;13.40;;;;;;;3.74;100.00;96287.13;1024191;28;20279;-70
2021/10/26 00:45:20;;;;;;;20.63;13.45;;;;;;;3.75;100.00;96283.53;1028087;28;20491;-71
2021/10/26 00:45:50;;;;;;;22.20;14.15;;;;;;;3.75;100.00;96292.09;1029722;28;20428;-71
2021/10/26 00:46:32;;;;;;;18.75;13.27;;;;;;;3.71;100.00;96277.16;1031537;28;20269;-71
2021/10/26 00:47:02;;;;;;;19.75;13.75;;;;;;;3.72;100.00;96283.94;1027838;28;20027;-72
2021/10/26 00:47:33;;;;;;;17.85;13.80;;;;;;;3.73;100.00;96291.53;1023749;29;20357;-70
2021/10/26 00:48:04;;;;;;;17.58;13.13;;;;;;;3.71;100.00;96288.34;1031015;28;20516;-70
2021/10/26 00:48:34;;;;;;;20.13;13.45;;;;;;;3.67;100.00;96281.19;1029148;28;20071;-72
2021/10/26 00:49:09;;;;;;;17.95;13.18;;;;;;;3.72;100.00;96289.13;1029665;28;20037;-71
2021/10/26 00:49:39;;;;;;;17.83;12.68;;;;;;;3.68;100.00;96282.75;1031045;28;20026;-71
2021/10/26 00:50:10;;;;;;;19.20;14.18;;;;;;;3.64;100.00;96282.38;1028037;28;20361;-70
2021/10/26 00:50:40;;;;;;;20.52;13.48;;;;;;;3.62;100.00;96278.38;1027894;28;20029;-71
2021/10/26 00:51:11;;;;;;;16.58;12.75;;;;;;;3.63;100.00;96290.38;1025389;28;20063;-70
2021/10/26 00:51:41;;;;;;;17.58;13.68;;;;;;;3.63;100.00;96291.19;1030856;28;20405;-71
2021/10/26 00:52:12;;;;;;;18.02;13.48;;;;;;;3.62;100.00;96293.97;1031280;28;20029;-69
2021/10/26 00:52:45;;;;;;;17.13;13.13;;;;;;;3.54;100.00;96282.00;1035247;28;20030;-71
2021/10/26 00:53:17;;;;;;;16.90;13.10;;;;;;;3.59;100.00;96297.78;1035291;28;20073;-69
2021/10/26 00:53:47;;;;;;;17.85;12.88;;;;;;;3.63;100.00;96291.19;1039861;28;20264;-72
2021/10/26 00:54:18;;;;;;;19.45;12.88;;;;;;;3.68;100.00;96290.53;1043606;28;20692;-68
2021/10/26 00:54:48;;;;;;;19.02;12.88;;;;;;;3.58;100.00;96282.41;1035555;28;20188;-72
2021/10/26 00:55:19;;;;;;;16.73;12.88;;;;;;;3.69;100.00;96290.34;1033305;28;20049;-71
2021/10/26 00:55:49;;;;;;;17.98;12.50;;;;;;;3.74;100.00;96292.31;1026597;28;20109;-71
2021/10/26 00:56:20;;;;;;;16.30;12.98;;;;;;;3.69;100.00;96294.72;1023399;28;20366;-72
2021/10/26 00:56:51;;;;;;;16.35;11.70;;;;;;;3.69;100.00;96294.72;1027133;28;20018;-72
2021/10/26 00:57:25;;;;;;;18.08;11.73;;;;;;;3.58;100.00;96278.00;1027052;28;20270;-72
2021/10/26 00:57:56;;;;;;;18.48;13.23;;;;;;;3.65;100.00;96294.34;1022859;28;20436;-72
2021/10/26 00:58:26;;;;;;;19.65;12.65;;;;;;;3.69;100.00;96292.94;1022973;28;20262;-71
2021/10/26 00:58:57;;;;;;;17.55;12.93;;;;;;;3.63;100.00;96290.38;1025697;28;20031;-71
2021/10/26 00:59:27;;;;;;;19.05;12.77;;;;;;;3.65;100.00;96301.34;1021338;29;20402;-72
2021/10/26 00:59:58;;;;;;;17.95;12.45;;;;;;;3.64;100.00;96292.75;1023486;28;20267;-72
2021/10/26 01:00:28;;;;;;;15.80;12.38;;;;;;;3.66;100.00;96290.75;1027253;28;20198;-71
2021/10/26 01:00:59;;;;;;;16.17;12.02;;;;;;;3.58;100.00;96277.22;1027117;28;20069;-72
2021/10/26 01:01:29;;;;;;;16.67;12.50;;;;;;;3.67;100.00;96288.97;1033853;28;20022;-69
2021/10/26 01:02:00;;;;;;;21.63;13.02;;;;;;;3.65;100.00;96288.34;1035132;28;20041;-70
2021/10/26 01:02:30;;;;;;;15.90;12.35;;;;;;;3.60;100.00;96288.19;1033401;28;20030;-72
2021/10/26 01:03:01;;;;;;;16.50;12.63;;;;;;;3.59;100.00;96289.16;1035944;28;20029;-72
2021/10/26 01:03:31;;;;;;;17.05;11.95;;;;;;;3.57;100.00;96291.19;1039374;28;20021;-72
2021/10/26 01:04:02;;;;;;;16.98;12.20;;;;;;;3.51;100.00;96287.59;1039198;28;20107;-71
2021/10/26 01:04:32;;;;;;;14.35;12.07;;;;;;;3.53;100.00;96290.81;1041604;28;20025;-71
2021/10/26 01:05:05;;;;;;;16.75;12.55;;;;;;;3.50;100.00;96297.19;1031509;28;20073;-70
2021/10/26 01:05:35;;;;;;;17.38;12.50;;;;;;;3.51;100.00;96297.97;1027401;28;20241;-70
2021/10/26 01:06:06;;;;;;;17.08;12.35;;;;;;;3.40;100.00;96281.25;1034990;28;20327;-68
2021/10/26 01:06:36;;;;;;;19.80;12.38;;;;;;;3.46;100.00;96290.03;1031094;28;20065;-72
2021/10/26 01:07:06;;;;;;;19.02;13.02;;;;;;;3.45;100.00;96291.81;1026071;28;20035;-71
2021/10/26 01:07:37;;;;;;;16.05;12.82;;;;;;;3.46;100.00;96298.59;1026991;28;20027;-72
2021/10/26 01:08:07;;;;;;;17.23;12.95;;;;;;;3.42;100.00;96294.84;1034744;28;20025;-72
2021/10/26 01:08:38;;;;;;;20.02;12.93;;;;;;;3.42;100.00;96297.44;1034962;28;20025;-71
2021/10/26 01:09:09;;;;;;;15.90;12.95;;;;;;;3.41;100.00;96293.22;1027250;28;20122;-72
2021/10/26 01:09:39;;;;;;;16.95;12.68;;;;;;;3.28;100.00;96286.25;1024483;28;20031;-72
2021/10/26 01:10:09;;;;;;;17.80;13.25;;;;;;;3.37;100.00;96292.03;1021088;28;20031;-72
2021/10/26 01:10:40;;;;;;;17.92;12.82;;;;;;;3.34;100.00;96292.44;1027334;28;20035;-72
2021/10/26 01:11:10;;;;;;;17.48;12.43;;;;;;;3.36;100.00;96290.44;1031093;28;20026;-73
2021/10/26 01:11:41;;;;;;;15.98;12.35;;;;;;;3.40;100.00;96286.44;1026593;28;20022;-72
2021/10/26 01:12:12;;;;;;;16.95;12.75;;;;;;;3.40;100.00;96291.63;1031285;28;20026;-72
2021/10/26 01:12:42;;;;;;;18.92;12.73;;;;;;;3.34;100.00;96282.06;1031037;28;20116;-70
2021/10/26 01:13:12;;;;;;;16.23;11.63;;;;;;;3.39;100.00;96290.03;1031253;28;20030;-71
2021/10/26 01:13:43;;;;;;;17.08;12.73;;;;;;;3.39;100.00;96291.84;1031865;28;20022;-70
2021/10/26 01:14:15;;;;;;;16.88;12.43;;;;;;;3.29;100.00;96279.28;1033357;28;20026;-71
2021/10/26 01:14:46;;;;;;;19.28;12.98;;;;;;;3.31;100.00;96282.47;1031217;28;20485;-71
2021/10/26 01:15:16;;;;;;;17.27;12.68;;;;;;;3.35;100.00;96298.41;1025742;28;20031;-71
2021/10/26 01:15:47;;;;;;;18.15;11.85;;;;;;;3.37;100.00;96284.25;1023795;28;20047;-71
2021/10/26 01:16:17;;;;;;;17.42;13.10;;;;;;;3.36;100.00;96287.06;1027568;28;20042;-71
2021/10/26 01:16:48;;;;;;;17.00;12.18;;;;;;;3.29;100.00;96281.88;1027547;28;20026;-70
2021/10/26 01:17:19;;;;;;;15.88;12.38;;;;;;;3.41;100.00;96293.22;1027144;28;20041;-70
2021/10/26 01:17:49;;;;;;;15.70;11.55;;;;;;;3.40;100.00;96286.44;1022748;29;20031;-71
2021/10/26 01:18:20;;;;;;;14.23;11.73;;;;;;;3.43;100.00;96295.63;1023279;29;20152;-70
2021/10/26 01:18:50;;;;;;;16.35;12.52;;;;;;;3.41;100.00;96298.41;1026964;28;20035;-71
2021/10/26 01:19:21;;;;;;;14.63;11.15;;;;;;;3.43;100.00;96299.00;1027387;28;20030;-70
2021/10/26 01:19:52;;;;;;;17.25;11.82;;;;;;;3.45;100.00;96297.00;1023217;29;20490;-71
2021/10/26 01:20:23;;;;;;;17.40;11.52;;;;;;;3.49;100.00;96289.63;1020547;28;20032;-71
2021/10/26 01:20:53;;;;;;;16.10;12.32;;;;;;;3.40;100.00;96289.03;1035090;28;20037;-71
2021/10/26 01:21:24;;;;;;;15.65;11.25;;;;;;;3.47;100.00;96292.41;1027459;28;20163;-70
2021/10/26 01:21:55;;;;;;;15.13;11.60;;;;;;;3.45;100.00;96294.41;1031400;28;20022;-69
2021/10/26 01:22:27;;;;;;;17.58;11.92;;;;;;;3.42;100.00;96287.06;1031290;28;20568;-71
2021/10/26 01:22:57;;;;;;;16.42;11.82;;;;;;;3.43;100.00;96291.22;1023663;28;20542;-70
2021/10/26 01:23:28;;;;;;;14.32;11.57;;;;;;;3.44;100.00;96292.81;1027151;28;20035;-70
2021/10/26 01:23:59;;;;;;;16.80;12.02;;;;;;;3.35;100.00;96288.84;1023079;29;20118;-70
2021/10/26 01:24:29;;;;;;;17.60;12.25;;;;;;;3.34;100.00;96292.44;1023424;28;20087;-72
2021/10/26 01:24:59;;;;;;;15.48;11.43;;;;;;;3.40;100.00;96301.22;1027061;28;20034;-70
2021/10/26 01:25:30;;;;;;;17.95;11.88;;;;;;;3.41;100.00;96306.19;1027174;28;20034;-71
2021/10/26 01:26:01;;;;;;;15.63;11.52;;;;;;;3.40;100.00;96299.41;1031667;28;20049;-71
2021/10/26 01:26:32;;;;;;;16.45;11.93;;;;;;;3.39;100.00;96299.63;1039656;28;20018;-67
2021/10/26 01:27:03;;;;;;;15.20;10.86;;;;;;;3.41;100.00;96300.22;1039319;28;20025;-71
2021/10/26 01:27:33;;;;;;;16.33;11.32;;;;;;;3.43;100.00;96303.41;1039395;28;20033;-70
2021/10/26 01:28:04;;;;;;;16.27;12.18;;;;;;;3.36;100.00;96289.66;1038639;28;20049;-69
2021/10/26 01:28:34;;;;;;;14.93;11.57;;;;;;;3.39;100.00;96299.63;1028842;28;20034;-71
2021/10/26 01:29:05;;;;;;;16.35;11.20;;;;;;;3.39;100.00;96299.63;1030885;28;20468;-71
2021/10/26 01:29:35;;;;;;;14.70;11.75;;;;;;;3.41;100.00;96297.63;1030394;28;20400;-71
2021/10/26 01:30:07;;;;;;;16.10;11.32;;;;;;;3.39;100.00;96299.63;1035426;28;20042;-71
2021/10/26 01:30:38;;;;;;;15.02;10.52;;;;;;;3.42;100.00;96294.00;1027351;28;20082;-70
2021/10/26 01:31:08;;;;;;;15.35;11.43;;;;;;;3.40;100.00;96291.63;1028664;28;20661;-71
2021/10/26 01:31:39;;;;;;;15.52;11.57;;;;;;;3.37;100.00;96296.44;1032936;28;20027;-70
2021/10/26 01:32:10;;;;;;;16.75;11.32;;;;;;;3.37;100.00;96289.44;1031796;28;20594;-71
2021/10/26 01:32:41;;;;;;;16.76;11.18;;;;;;;3.35;100.00;96283.66;1039938;28;20474;-70
2021/10/26 01:33:11;;;;;;;17.95;10.80;;;;;;;3.38;100.00;96290.22;1037625;28;20033;-71
2021/10/26 01:33:42;;;;;;;14.32;11.45;;;;;;;3.37;100.00;96284.25;1031640;28;20030;-72
2021/10/26 01:34:13;;;;;;;13.75;10.40;;;;;;;3.38;100.00;96293.63;1027467;28;20026;-70
2021/10/26 01:34:44;;;;;;;15.95;11.77;;;;;;;3.35;100.00;96286.25;1027557;28;20034;-71
2021/10/26 01:35:14;;;;;;;18.15;11.93;;;;;;;3.34;100.00;96289.84;1027218;28;20158;-70
2021/10/26 01:35:45;;;;;;;19.70;11.27;;;;;;;3.34;100.00;96289.84;1027389;28;20030;-69
2021/10/26 01:36:17;;;;;;;12.75;10.55;;;;;;;3.25;100.00;96278.09;1031298;28;20045;-70
2021/10/26 01:36:50;;;;;;;14.74;11.16;;;;;;;3.37;100.00;96289.44;1032119;28;20037;-70
2021/10/26 01:37:21;;;;;;;16.65;11.25;;;;;;;3.36;100.00;96287.84;1039324;28;20039;-70
2021/10/26 01:37:51;;;;;;;14.38;11.10;;;;;;;3.39;100.00;96295.22;1038416;28;20330;-70
2021/10/26 01:38:22;;;;;;;14.68;10.30;;;;;;;3.40;100.00;96290.84;1031951;28;20026;-69
2021/10/26 01:38:52;;;;;;;13.75;9.98;;;;;;;3.38;100.00;96283.25;1031105;28;20076;-70
2021/10/26 01:39:23;;;;;;;14.88;10.82;;;;;;;3.39;100.00;96290.03;1023280;29;20271;-69
2021/10/26 01:39:53;;;;;;;13.43;10.48;;;;;;;3.43;100.00;96290.44;1019294;28;20046;-70
2021/10/26 01:40:24;;;;;;;13.68;10.13;;;;;;;3.37;100.00;96280.88;1027263;28;20026;-71
2021/10/26 01:40:54;;;;;;;14.60;10.68;;;;;;;3.43;100.00;96285.25;1023608;28;20027;-69
2021/10/26 01:41:25;;;;;;;12.93;10.43;;;;;;;3.41;100.00;96284.66;1031203;28;20022;-71
2021/10/26 01:41:56;;;;;;;16.75;11.20;;;;;;;3.37;100.00;96284.25;1030885;28;20297;-70
2021/10/26 01:42:26;;;;;;;18.24;11.24;;;;;;;3.38;100.00;96282.44;1023797;28;20031;-70
2021/10/26 01:42:57;;;;;;;13.27;10.73;;;;;;;3.38;100.00;96285.03;1030260;28;20034;-70
2021/10/26 01:43:27;;;;;;;12.65;10.23;;;;;;;3.38;100.00;96291.03;1031209;28;20531;-70
2021/10/26 01:43:58;;;;;;;14.27;10.23;;;;;;;3.38;100.00;96293.63;1025298;28;20634;-70
2021/10/26 01:44:28;;;;;;;15.15;10.90;;;;;;;3.39;100.00;96287.44;1032702;28;20026;-69
2021/10/26 01:44:59;;;;;;;12.65;10.88;;;;;;;3.36;100.00;96285.25;1037463;28;20021;-70
2021/10/26 01:45:29;;;;;;;14.82;10.75;;;;;;;3.37;100.00;96281.66;1034364;28;20022;-70
2021/10/26 01:46:00;;;;;;;14.93;10.32;;;;;;;3.35;100.00;96288.84;1030619;28;20033;-71
2021/10/26 01:46:30;;;;;;;13.68;10.50;;;;;;;3.36;100.00;96294.84;1027171;28;20023;-70
2021/10/26 01:47:00;;;;;;;13.98;10.45;;;;;;;3.33;100.00;96285.66;1035070;28;20419;-69
2021/10/26 01:47:31;;;;;;;15.48;10.07;;;;;;;3.28;100.00;96286.25;1043027;28;20507;-70
2021/10/26 01:48:01;;;;;;;14.70;10.75;;;;;;;3.31;100.00;96293.63;1029284;28;20030;-70
2021/10/26 01:48:32;;;;;;;12.90;10.40;;;;;;;3.29;100.00;96287.88;1030599;28;20030;-71
2021/10/26 01:49:02;;;;;;;13.20;10.82;;;;;;;3.29;100.00;96293.06;1027091;28;20050;-70
2021/10/26 01:49:33;;;;;;;15.18;10.70;;;;;;;3.27;100.00;96295.03;1030877;28;20094;-70
2021/10/26 01:50:09;;;;;;;14.30;11.20;;;;;;;3.28;100.00;96293.25;1031058;28;20484;-70
2021/10/26 01:50:39;;;;;;;15.22;10.68;;;;;;;3.20;100.00;96290.88;1035104;28;20395;-70
2021/10/26 01:51:10;;;;;;;13.57;10.55;;;;;;;3.26;100.00;96298.66;1031571;28;20034;-70
2021/10/26 01:51:40;;;;;;;16.00;11.25;;;;;;;3.29;100.00;96300.03;1035943;28;20018;-70
2021/10/26 01:52:11;;;;;;;17.42;10.85;;;;;;;3.27;100.00;96294.25;1034702;28;20112;-70
2021/10/26 01:52:42;;;;;;;15.38;10.90;;;;;;;3.20;100.00;96286.47;1030981;28;20076;-70
2021/10/26 01:53:12;;;;;;;13.00;10.13;;;;;;;3.25;100.00;96293.66;1031024;28;20093;-69
2021/10/26 01:53:43;;;;;;;16.17;10.73;;;;;;;3.24;100.00;96303.22;1031171;28;20672;-70
2021/10/26 01:54:13;;;;;;;15.68;10.25;;;;;;;3.25;100.00;96296.25;1038897;28;20112;-70
2021/10/26 01:54:44;;;;;;;15.02;10.18;;;;;;;3.20;100.00;96286.47;1043506;28;20025;-70
2021/10/26 01:55:14;;;;;;;14.48;11.05;;;;;;;3.14;100.00;96289.09;1039021;28;20022;-70
2021/10/26 01:55:45;;;;;;;16.17;10.60;;;;;;;3.22;100.00;96291.44;1030913;28;20029;-70
2021/10/26 01:56:15;;;;;;;13.60;10.38;;;;;;;3.20;100.00;96285.69;1030750;28;20392;-70
2021/10/26 01:56:46;;;;;;;13.88;10.73;;;;;;;3.19;100.00;96295.28;1026857;28;20057;-70
2021/10/26 01:57:19;;;;;;;13.65;10.18;;;;;;;3.25;100.00;96293.66;1031290;28;20023;-71
2021/10/26 01:57:50;;;;;;;14.66;10.44;;;;;;;3.23;100.00;96295.66;1038298;28;20076;-69
2021/10/26 01:58:20;;;;;;;15.18;10.95;;;;;;;3.22;100.00;96294.88;1039664;28;20467;-70
2021/10/26 01:58:51;;;;;;;16.38;10.82;;;;;;;3.15;100.00;96281.09;1047367;28;20146;-71
2021/10/26 01:59:21;;;;;;;15.23;9.80;;;;;;;3.18;100.00;96285.88;1035548;28;20026;-69
2021/10/26 01:59:52;;;;;;;13.98;9.85;;;;;;;3.16;100.00;96289.69;1026869;28;20489;-71
2021/10/26 02:00:23;;;;;;;16.88;11.60;;;;;;;3.20;100.00;96296.06;1034947;28;20045;-69
2021/10/26 02:00:53;;;;;;;17.08;10.25;;;;;;;3.20;100.00;96296.06;1034565;28;20018;-71
2021/10/26 02:01:23;;;;;;;14.77;9.90;;;;;;;3.19;100.00;96291.88;1030750;28;20026;-69
2021/10/26 02:01:54;;;;;;;14.90;10.55;;;;;;;3.21;100.00;96290.66;1038716;28;20033;-70
2021/10/26 02:02:25;;;;;;;13.45;9.85;;;;;;;3.22;100.00;96291.44;1033097;28;20060;-69
2021/10/26 02:02:55;;;;;;;14.18;9.32;;;;;;;3.26;100.00;96295.25;1031198;28;20026;-69
2021/10/26 02:03:26;;;;;;;13.77;9.85;;;;;;;3.22;100.00;96286.28;1035040;28;20522;-70
2021/10/26 02:03:57;;;;;;;14.20;10.38;;;;;;;3.20;100.00;96290.88;1035307;28;20133;-69
2021/10/26 02:04:27;;;;;;;12.30;9.93;;;;;;;3.18;100.00;96291.06;1047301;28;20024;-70
2021/10/26 02:04:58;;;;;;;14.23;10.43;;;;;;;3.21;100.00;96295.06;1042835;28;20562;-69
2021/10/26 02:05:28;;;;;;;12.80;9.50;;;;;;;3.18;100.00;96288.47;1039069;28;20018;-70
2021/10/26 02:05:59;;;;;;;15.65;9.98;;;;;;;3.17;100.00;96288.69;1038812;28;20025;-70
2021/10/26 02:06:29;;;;;;;15.00;9.88;;;;;;;3.14;100.00;96287.28;1030773;28;20022;-70
2021/10/26 02:07:00;;;;;;;13.50;10.10;;;;;;;3.11;100.00;96281.72;1038995;28;20037;-70
2021/10/26 02:07:30;;;;;;;12.13;9.85;;;;;;;3.18;100.00;96288.47;1034716;28;20017;-70
2021/10/26 02:08:01;;;;;;;14.35;9.38;;;;;;;3.21;100.00;96292.47;1030185;28;20018;-70
2021/10/26 02:08:31;;;;;;;12.80;9.68;;;;;;;3.21;100.00;96289.88;1031071;28;20064;-69
2021/10/26 02:09:02;;;;;;;15.98;10.63;;;;;;;3.19;100.00;96294.47;1030943;28;20369;-70
2021/10/26 02:09:33;;;;;;;14.35;10.63;;;;;;;3.16;100.00;96289.69;1035204;28;20018;-70
2021/10/26 02:10:04;;;;;;;13.60;10.75;;;;;;;3.15;100.00;96290.66;1035010;28;20026;-69
2021/10/26 02:10:34;;;;;;;14.55;10.68;;;;;;;3.15;100.00;96293.25;1035090;28;20049;-70
2021/10/26 02:11:04;;;;;;;15.07;10.50;;;;;;;3.16;100.00;96289.69;1039119;28;20611;-69
2021/10/26 02:11:36;;;;;;;14.27;9.68;;;;;;;3.14;100.00;96291.69;1039156;28;20037;-70
2021/10/26 02:12:07;;;;;;;13.44;10.28;;;;;;;3.13;100.00;96290.88;1039225;28;20108;-70
2021/10/26 02:12:37;;;;;;;13.82;10.00;;;;;;;3.10;100.00;96295.69;1039193;28;20398;-70
2021/10/26 02:13:08;;;;;;;13.23;10.23;;;;;;;3.14;100.00;96294.28;1030989;28;20029;-69
2021/10/26 02:13:38;;;;;;;14.25;9.63;;;;;;;3.13;100.00;96290.88;1030995;28;20022;-70
2021/10/26 02:14:09;;;;;;;14.23;10.18;;;;;;;3.11;100.00;96286.91;1030896;28;20123;-71
2021/10/26 02:14:39;;;;;;;15.05;10.70;;;;;;;3.09;100.00;96289.69;1035100;28;20014;-70
2021/10/26 02:15:10;;;;;;;15.25;10.05;;;;;;;3.06;100.00;96296.06;1034874;28;20141;-69
2021/10/26 02:15:40;;;;;;;15.07;9.85;;;;;;;3.05;100.00;96297.09;1035023;28;20072;-70
2021/10/26 02:16:11;;;;;;;13.95;10.32;;;;;;;3.03;100.00;96293.88;1034855;28;20029;-70
2021/10/26 02:16:41;;;;;;;14.23;10.93;;;;;;;3.03;100.00;96296.47;1039283;28;20128;-69
2021/10/26 02:17:12;;;;;;;16.63;10.32;;;;;;;3.02;100.00;96294.88;1038681;28;20022;-70
2021/10/26 02:17:42;;;;;;;14.90;10.98;;;;;;;2.99;100.00;96294.50;1034586;28;20021;-70
2021/10/26 02:18:13;;;;;;;13.95;10.73;;;;;;;3.00;100.00;96296.88;1034393;28;20026;-70
2021/10/26 02:18:43;;;;;;;14.70;10.90;;;;;;;3.04;100.00;96300.66;1034908;28;20427;-71
2021/10/26 02:19:14;;;;;;;13.48;10.43;;;;;;;3.04;100.00;96290.28;1039178;28;20503;-71
2021/10/26 02:19:45;;;;;;;19.26;11.68;;;;;;;2.99;100.00;96294.50;1043129;28;20020;-70
2021/10/26 02:20:15;;;;;;;12.95;10.07;;;;;;;2.91;100.00;96286.91;1042867;28;20020;-69
2021/10/26 02:20:46;;;;;;;13.32;9.65;;;;;;;2.91;100.00;96286.91;1039125;28;20012;-70
2021/10/26 02:21:17;;;;;;;14.90;10.52;;;;;;;2.97;100.00;96292.09;1034728;28;20026;-69